Nashville, Tennessee
Traffic Map
Current Weather Conditions
Nashville, Tennessee
Broken Clouds
Broken Clouds
48°
Feels Like: 48°
Wind Chill: 48° Ceiling: 25000
Heat Index: 48° Visibility: 10mi
Dew Point: 22° Wind: 0mph
Humidity: 36% Direction: ° ()
Pressure: 30.46in Gusts: 0mph
Raw Report DataKBNA 282053Z 00000KT 10SM FEW100 BKN250 09/M06 A3046 RMK AO2 SLP319 T00891056 56034
Traffic Incident Summary
Active as of:
Severity:
Category:
InformationThere was an issue retrieving the traffic information for this location. Please try a different location or try again shortly.
Advertisements
Track Severe Weather on mobile